sensor_id;sensor_type;location;lat;lon;timestamp;pressure;altitude;pressure_sealevel;temperature;humidity
21588;BME280;10956;48.878;13.316;2023-02-14T00:02:04;95981.44;;;1.56;100.00
21588;BME280;10956;48.878;13.316;2023-02-14T00:04:30;95985.97;;;1.62;100.00
21588;BME280;10956;48.878;13.316;2023-02-14T00:06:55;95985.47;;;1.67;100.00
21588;BME280;10956;48.878;13.316;2023-02-14T00:09:21;95989.38;;;1.71;100.00
21588;BME280;10956;48.878;13.316;2023-02-14T00:11:46;95986.28;;;1.75;100.00
21588;BME280;10956;48.878;13.316;2023-02-14T00:14:13;95988.69;;;1.77;100.00
21588;BME280;10956;48.878;13.316;2023-02-14T00:16:57;95984.63;;;1.82;100.00
21588;BME280;10956;48.878;13.316;2023-02-14T00:19:23;95981.53;;;1.79;100.00
21588;BME280;10956;48.878;13.316;2023-02-14T00:21:49;95985.47;;;1.75;100.00
21588;BME280;10956;48.878;13.316;2023-02-14T00:24:17;95991.16;;;1.70;100.00
21588;BME280;10956;48.878;13.316;2023-02-14T00:26:43;95986.94;;;1.69;100.00
21588;BME280;10956;48.878;13.316;2023-02-14T00:29:13;95986.94;;;1.69;100.00
21588;BME280;10956;48.878;13.316;2023-02-14T00:31:39;95994.91;;;1.68;100.00
21588;BME280;10956;48.878;13.316;2023-02-14T00:34:05;95989.06;;;1.66;100.00
21588;BME280;10956;48.878;13.316;2023-02-14T00:36:31;95979.00;;;1.54;100.00
21588;BME280;10956;48.878;13.316;2023-02-14T00:38:57;95987.13;;;1.51;100.00
21588;BME280;10956;48.878;13.316;2023-02-14T00:41:22;95985.34;;;1.52;100.00
21588;BME280;10956;48.878;13.316;2023-02-14T00:43:49;95991.38;;;1.52;100.00
21588;BME280;10956;48.878;13.316;2023-02-14T00:46:16;95985.84;;;1.55;100.00
21588;BME280;10956;48.878;13.316;2023-02-14T00:48:42;95983.88;;;1.57;100.00
21588;BME280;10956;48.878;13.316;2023-02-14T00:51:08;95978.34;;;1.60;100.00
21588;BME280;10956;48.878;13.316;2023-02-14T00:53:34;95983.06;;;1.57;100.00
21588;BME280;10956;48.878;13.316;2023-02-14T00:56:00;95979.97;;;1.61;100.00
21588;BME280;10956;48.878;13.316;2023-02-14T00:58:26;95972.50;;;1.58;100.00
21588;BME280;10956;48.878;13.316;2023-02-14T01:00:51;95973.16;;;1.60;100.00
21588;BME280;10956;48.878;13.316;2023-02-14T01:03:17;95985.81;;;1.64;100.00
21588;BME280;10956;48.878;13.316;2023-02-14T01:05:43;95973.78;;;1.63;100.00
21588;BME280;10956;48.878;13.316;2023-02-14T01:08:08;95986.66;;;1.56;100.00
21588;BME280;10956;48.878;13.316;2023-02-14T01:10:37;95985.34;;;1.52;100.00
21588;BME280;10956;48.878;13.316;2023-02-14T01:13:03;95991.38;;;1.52;100.00
21588;BME280;10956;48.878;13.316;2023-02-14T01:15:29;95980.81;;;1.54;100.00
21588;BME280;10956;48.878;13.316;2023-02-14T01:17:57;95965.72;;;1.49;100.00
21588;BME280;10956;48.878;13.316;2023-02-14T01:20:22;95965.38;;;1.52;100.00
21588;BME280;10956;48.878;13.316;2023-02-14T01:22:48;95972.19;;;1.53;100.00
21588;BME280;10956;48.878;13.316;2023-02-14T01:25:14;95966.34;;;1.51;100.00
21588;BME280;10956;48.878;13.316;2023-02-14T01:27:39;95967.00;;;1.53;100.00
21588;BME280;10956;48.878;13.316;2023-02-14T01:30:06;95974.78;;;1.53;100.00
21588;BME280;10956;48.878;13.316;2023-02-14T01:32:32;95976.91;;;1.50;100.00
21588;BME280;10956;48.878;13.316;2023-02-14T01:34:58;95970.94;;;1.41;100.00
21588;BME280;10956;48.878;13.316;2023-02-14T01:37:24;95971.25;;;1.38;100.00
21588;BME280;10956;48.878;13.316;2023-02-14T01:39:49;95963.47;;;1.38;100.00
21588;BME280;10956;48.878;13.316;2023-02-14T01:42:14;95962.47;;;1.39;100.00
21588;BME280;10956;48.878;13.316;2023-02-14T01:47:07;95973.84;;;1.38;100.00
21588;BME280;10956;48.878;13.316;2023-02-14T01:49:37;95969.97;;;1.34;100.00
21588;BME280;10956;48.878;13.316;2023-02-14T01:52:08;95965.41;;;1.36;100.00
21588;BME280;10956;48.878;13.316;2023-02-14T01:54:40;95964.44;;;1.37;100.00
21588;BME280;10956;48.878;13.316;2023-02-14T01:57:10;95972.56;;;1.34;100.00
21588;BME280;10956;48.878;13.316;2023-02-14T01:59:42;95966.56;;;1.34;100.00
21588;BME280;10956;48.878;13.316;2023-02-14T02:02:11;95975.16;;;1.34;100.00
21588;BME280;10956;48.878;13.316;2023-02-14T02:04:39;95969.31;;;1.32;100.00
21588;BME280;10956;48.878;13.316;2023-02-14T02:07:09;95971.94;;;1.24;100.00
21588;BME280;10956;48.878;13.316;2023-02-14T02:09:42;95964.16;;;1.16;100.00
21588;BME280;10956;48.878;13.316;2023-02-14T02:12:10;95962.84;;;1.12;100.00
21588;BME280;10956;48.878;13.316;2023-02-14T02:14:36;95959.59;;;1.10;100.00
21588;BME280;10956;48.878;13.316;2023-02-14T02:17:17;95954.91;;;1.13;100.00
21588;BME280;10956;48.878;13.316;2023-02-14T02:46:39;95940.16;;;0.98;100.00
21588;BME280;10956;48.878;13.316;2023-02-14T02:52:33;95937.88;;;1.03;100.00
21588;BME280;10956;48.878;13.316;2023-02-14T02:55:29;95943.22;;;1.01;100.00
21588;BME280;10956;48.878;13.316;2023-02-14T02:58:23;95944.38;;;0.99;100.00
21588;BME280;10956;48.878;13.316;2023-02-14T03:00:52;95939.16;;;0.99;100.00
21588;BME280;10956;48.878;13.316;2023-02-14T03:03:20;95933.81;;;0.92;100.00
21588;BME280;10956;48.878;13.316;2023-02-14T03:06:07;95927.81;;;0.83;100.00
21588;BME280;10956;48.878;13.316;2023-02-14T03:08:32;95937.06;;;0.86;100.00
21588;BME280;10956;48.878;13.316;2023-02-14T03:10:58;95933.00;;;0.83;100.00
21588;BME280;10956;48.878;13.316;2023-02-14T03:13:52;95933.66;;;0.77;100.00
21588;BME280;10956;48.878;13.316;2023-02-14T03:16:41;95935.94;;;0.72;100.00
21588;BME280;10956;48.878;13.316;2023-02-14T03:19:41;95925.88;;;0.61;100.00
21588;BME280;10956;48.878;13.316;2023-02-14T03:26:09;95912.41;;;0.57;100.00
21588;BME280;10956;48.878;13.316;2023-02-14T03:31:35;95916.16;;;0.47;100.00
21588;BME280;10956;48.878;13.316;2023-02-14T03:34:23;95915.00;;;0.49;100.00
21588;BME280;10956;48.878;13.316;2023-02-14T03:36:55;95930.41;;;0.43;100.00
21588;BME280;10956;48.878;13.316;2023-02-14T03:39:34;95914.50;;;0.29;100.00
21588;BME280;10956;48.878;13.316;2023-02-14T03:42:10;95923.56;;;0.25;100.00
21588;BME280;10956;48.878;13.316;2023-02-14T03:44:39;95921.97;;;0.32;100.00
21588;BME280;10956;48.878;13.316;2023-02-14T03:47:10;95913.53;;;0.30;100.00
21588;BME280;10956;48.878;13.316;2023-02-14T03:49:49;95908.66;;;0.27;100.00
21588;BME280;10956;48.878;13.316;2023-02-14T03:52:16;95907.38;;;0.23;100.00
21588;BME280;10956;48.878;13.316;2023-02-14T03:54:44;95915.13;;;0.15;100.00
21588;BME280;10956;48.878;13.316;2023-02-14T03:57:16;95913.19;;;0.17;100.00
21588;BME280;10956;48.878;13.316;2023-02-14T03:59:44;95905.09;;;0.12;100.00
21588;BME280;10956;48.878;13.316;2023-02-14T04:02:14;95908.00;;;0.09;100.00
21588;BME280;10956;48.878;13.316;2023-02-14T04:04:46;95905.56;;;0.08;100.00
21588;BME280;10956;48.878;13.316;2023-02-14T04:07:18;95908.16;;;0.08;100.00
21588;BME280;10956;48.878;13.316;2023-02-14T04:09:44;95908.63;;;0.03;100.00
21588;BME280;10956;48.878;13.316;2023-02-14T04:12:10;95915.25;;;-0.03;100.00
21588;BME280;10956;48.878;13.316;2023-02-14T04:14:36;95914.44;;;-0.03;100.00
21588;BME280;10956;48.878;13.316;2023-02-14T04:17:01;95912.81;;;-0.04;100.00
21588;BME280;10956;48.878;13.316;2023-02-14T04:19:45;95912.16;;;-0.06;100.00
21588;BME280;10956;48.878;13.316;2023-02-14T04:22:11;95920.56;;;-0.12;100.00
21588;BME280;10956;48.878;13.316;2023-02-14T04:24:36;95916.03;;;-0.10;100.00
21588;BME280;10956;48.878;13.316;2023-02-14T04:27:02;95919.94;;;-0.06;100.00
21588;BME280;10956;48.878;13.316;2023-02-14T04:29:39;95929.00;;;-0.10;100.00
21588;BME280;10956;48.878;13.316;2023-02-14T04:32:07;95927.69;;;-0.14;100.00
21588;BME280;10956;48.878;13.316;2023-02-14T04:34:33;95930.91;;;-0.20;100.00
21588;BME280;10956;48.878;13.316;2023-02-14T04:36:59;95931.06;;;-0.22;100.00
21588;BME280;10956;48.878;13.316;2023-02-14T04:39:24;95927.47;;;-0.29;100.00
21588;BME280;10956;48.878;13.316;2023-02-14T04:41:50;95921.81;;;-0.24;100.00
21588;BME280;10956;48.878;13.316;2023-02-14T04:44:15;95926.38;;;-0.18;100.00
21588;BME280;10956;48.878;13.316;2023-02-14T04:46:41;95930.94;;;-0.12;100.00
21588;BME280;10956;48.878;13.316;2023-02-14T04:49:06;95936.13;;;-0.12;100.00
21588;BME280;10956;48.878;13.316;2023-02-14T04:51:31;95927.38;;;-0.11;100.00
21588;BME280;10956;48.878;13.316;2023-02-14T04:53:57;95932.56;;;-0.11;100.00
21588;BME280;10956;48.878;13.316;2023-02-14T04:56:22;95931.09;;;-0.14;100.00
21588;BME280;10956;48.878;13.316;2023-02-14T04:58:50;95931.25;;;-0.15;100.00
21588;BME280;10956;48.878;13.316;2023-02-14T05:01:15;95934.66;;;-0.15;100.00
21588;BME280;10956;48.878;13.316;2023-02-14T05:03:41;95925.41;;;-0.17;100.00
21588;BME280;10956;48.878;13.316;2023-02-14T05:06:06;95928.00;;;-0.17;100.00
21588;BME280;10956;48.878;13.316;2023-02-14T05:08:31;95931.19;;;-0.31;100.00
21588;BME280;10956;48.878;13.316;2023-02-14T05:10:57;95934.44;;;-0.29;100.00
21588;BME280;10956;48.878;13.316;2023-02-14T05:13:22;95925.38;;;-0.25;100.00
21588;BME280;10956;48.878;13.316;2023-02-14T05:15:48;95924.56;;;-0.26;100.00
21588;BME280;10956;48.878;13.316;2023-02-14T05:18:13;95924.25;;;-0.23;100.00
21588;BME280;10956;48.878;13.316;2023-02-14T05:20:38;95931.56;;;-0.18;100.00
21588;BME280;10956;48.878;13.316;2023-02-14T05:23:04;95928.63;;;-0.23;100.00
21588;BME280;10956;48.878;13.316;2023-02-14T05:25:30;95933.13;;;-0.34;100.00
21588;BME280;10956;48.878;13.316;2023-02-14T05:27:55;95931.16;;;-0.40;100.00
21588;BME280;10956;48.878;13.316;2023-02-14T05:30:21;95915.78;;;-0.41;100.00
21588;BME280;10956;48.878;13.316;2023-02-14T05:32:51;95925.31;;;-0.42;100.00
21588;BME280;10956;48.878;13.316;2023-02-14T05:35:16;95922.22;;;-0.45;100.00
21588;BME280;10956;48.878;13.316;2023-02-14T05:37:42;95924.81;;;-0.45;100.00
21588;BME280;10956;48.878;13.316;2023-02-14T05:40:07;95921.75;;;-0.41;100.00
21588;BME280;10956;48.878;13.316;2023-02-14T05:42:33;95919.13;;;-0.49;100.00
21588;BME280;10956;48.878;13.316;2023-02-14T05:44:59;95923.31;;;-0.56;100.00
21588;BME280;10956;48.878;13.316;2023-02-14T05:47:24;95928.19;;;-0.53;100.00
21588;BME280;10956;48.878;13.316;2023-02-14T05:49:49;95928.50;;;-0.56;100.00
21588;BME280;10956;48.878;13.316;2023-02-14T05:52:15;95925.97;;;-0.74;100.00
21588;BME280;10956;48.878;13.316;2023-02-14T05:54:40;95921.09;;;-0.77;100.00
21588;BME280;10956;48.878;13.316;2023-02-14T05:57:06;95918.16;;;-0.82;100.00
21588;BME280;10956;48.878;13.316;2023-02-14T05:59:31;95916.84;;;-0.86;100.00
21588;BME280;10956;48.878;13.316;2023-02-14T06:01:56;95919.28;;;-0.84;100.00
21588;BME280;10956;48.878;13.316;2023-02-14T06:04:22;95919.28;;;-0.84;100.00
21588;BME280;10956;48.878;13.316;2023-02-14T06:06:47;95916.03;;;-0.86;100.00
21588;BME280;10956;48.878;13.316;2023-02-14T06:09:13;95926.09;;;-0.83;100.00
21588;BME280;10956;48.878;13.316;2023-02-14T06:11:39;95917.66;;;-0.85;100.00
21588;BME280;10956;48.878;13.316;2023-02-14T06:14:04;95926.09;;;-0.83;100.00
21588;BME280;10956;48.878;13.316;2023-02-14T06:16:30;95914.75;;;-0.82;100.00
21588;BME280;10956;48.878;13.316;2023-02-14T06:18:55;95912.78;;;-0.88;100.00
21588;BME280;10956;48.878;13.316;2023-02-14T06:21:21;95925.72;;;-0.88;100.00
21588;BME280;10956;48.878;13.316;2023-02-14T06:23:46;95920.56;;;-0.88;100.00
21588;BME280;10956;48.878;13.316;2023-02-14T06:26:11;95918.13;;;-0.90;100.00
21588;BME280;10956;48.878;13.316;2023-02-14T06:28:37;95924.78;;;-0.87;100.00
21588;BME280;10956;48.878;13.316;2023-02-14T06:31:02;95920.91;;;-0.83;100.00
21588;BME280;10956;48.878;13.316;2023-02-14T06:33:28;95924.66;;;-0.78;100.00
21588;BME280;10956;48.878;13.316;2023-02-14T06:35:53;95922.56;;;-0.74;100.00
21588;BME280;10956;48.878;13.316;2023-02-14T06:38:19;95917.03;;;-0.79;100.00
21588;BME280;10956;48.878;13.316;2023-02-14T06:40:45;95936.13;;;-0.80;100.00
21588;BME280;10956;48.878;13.316;2023-02-14T06:43:10;95922.84;;;-0.85;100.00
21588;BME280;10956;48.878;13.316;2023-02-14T06:45:36;95931.75;;;-0.80;100.00
21588;BME280;10956;48.878;13.316;2023-02-14T06:48:01;95926.78;;;-0.73;100.00
21588;BME280;10956;48.878;13.316;2023-02-14T06:50:28;95927.28;;;-0.70;100.00
21588;BME280;10956;48.878;13.316;2023-02-14T06:52:53;95920.81;;;-0.74;100.00
21588;BME280;10956;48.878;13.316;2023-02-14T06:55:19;95921.75;;;-0.75;100.00
21588;BME280;10956;48.878;13.316;2023-02-14T06:57:44;95916.78;;;-0.68;100.00
21588;BME280;10956;48.878;13.316;2023-02-14T07:00:10;95915.81;;;-0.67;100.00
21588;BME280;10956;48.878;13.316;2023-02-14T07:02:36;95907.91;;;-0.66;100.00
21588;BME280;10956;48.878;13.316;2023-02-14T07:05:01;95909.00;;;-0.68;100.00
21588;BME280;10956;48.878;13.316;2023-02-14T07:07:26;95911.25;;;-0.73;100.00
21588;BME280;10956;48.878;13.316;2023-02-14T07:09:52;95910.13;;;-0.71;100.00
21588;BME280;10956;48.878;13.316;2023-02-14T07:12:17;95904.19;;;-0.63;100.00
21588;BME280;10956;48.878;13.316;2023-02-14T07:14:43;95904.22;;;-0.55;100.00
21588;BME280;10956;48.878;13.316;2023-02-14T07:17:08;95904.72;;;-0.51;100.00
21588;BME280;10956;48.878;13.316;2023-02-14T07:19:34;95897.59;;;-0.49;100.00
21588;BME280;10956;48.878;13.316;2023-02-14T07:21:59;95894.41;;;-0.43;100.00
21588;BME280;10956;48.878;13.316;2023-02-14T07:24:25;95894.75;;;-0.38;100.00
21588;BME280;10956;48.878;13.316;2023-02-14T07:26:50;95896.84;;;-0.34;100.00
21588;BME280;10956;48.878;13.316;2023-02-14T07:29:16;95882.63;;;-0.29;100.00
21588;BME280;10956;48.878;13.316;2023-02-14T07:31:41;95890.91;;;-0.26;100.00
21588;BME280;10956;48.878;13.316;2023-02-14T07:34:07;95887.50;;;-0.18;100.00
21588;BME280;10956;48.878;13.316;2023-02-14T07:36:32;95892.34;;;-0.23;100.00
21588;BME280;10956;48.878;13.316;2023-02-14T07:38:58;95892.03;;;-0.20;100.00
21588;BME280;10956;48.878;13.316;2023-02-14T07:41:23;95904.53;;;-0.16;100.00
21588;BME280;10956;48.878;13.316;2023-02-14T07:43:49;95898.41;;;-0.07;100.00
21588;BME280;10956;48.878;13.316;2023-02-14T07:46:14;95901.81;;;0.02;100.00
21588;BME280;10956;48.878;13.316;2023-02-14T07:48:42;95902.13;;;-0.01;100.00
21588;BME280;10956;48.878;13.316;2023-02-14T07:51:08;95899.88;;;0.04;100.00
21588;BME280;10956;48.878;13.316;2023-02-14T07:53:33;95897.28;;;0.04;100.00
21588;BME280;10956;48.878;13.316;2023-02-14T07:55:59;95898.25;;;0.03;100.00
21588;BME280;10956;48.878;13.316;2023-02-14T07:58:24;95895.34;;;0.06;100.00
21588;BME280;10956;48.878;13.316;2023-02-14T08:00:50;95892.75;;;0.06;100.00
21588;BME280;10956;48.878;13.316;2023-02-14T08:03:16;95890.81;;;0.08;100.00
21588;BME280;10956;48.878;13.316;2023-02-14T08:05:41;95887.25;;;0.09;100.00
21588;BME280;10956;48.878;13.316;2023-02-14T08:08:07;95883.06;;;0.16;100.00
21588;BME280;10956;48.878;13.316;2023-02-14T08:10:33;95892.78;;;0.22;100.00
21588;BME280;10956;48.878;13.316;2023-02-14T08:12:58;95884.03;;;0.23;100.00
21588;BME280;10956;48.878;13.316;2023-02-14T08:15:28;95885.66;;;0.24;100.00
21588;BME280;10956;48.878;13.316;2023-02-14T08:18:12;95884.84;;;0.16;100.00
21588;BME280;10956;48.878;13.316;2023-02-14T08:20:38;95882.06;;;0.09;100.00
21588;BME280;10956;48.878;13.316;2023-02-14T08:23:03;95882.38;;;0.06;100.00
21588;BME280;10956;48.878;13.316;2023-02-14T08:25:29;95887.88;;;0.03;100.00
21588;BME280;10956;48.878;13.316;2023-02-14T08:27:54;95876.22;;;-0.01;100.00
21588;BME280;10956;48.878;13.316;2023-02-14T08:30:20;95881.41;;;-0.01;100.00
21588;BME280;10956;48.878;13.316;2023-02-14T08:32:46;95878.81;;;-0.01;100.00
21588;BME280;10956;48.878;13.316;2023-02-14T08:35:11;95881.56;;;-0.03;100.00
21588;BME280;10956;48.878;13.316;2023-02-14T08:37:37;95875.22;;;-0.08;100.00
21588;BME280;10956;48.878;13.316;2023-02-14T08:40:02;95873.78;;;-0.11;100.00
21588;BME280;10956;48.878;13.316;2023-02-14T08:42:28;95878.13;;;-0.19;100.00
21588;BME280;10956;48.878;13.316;2023-02-14T08:44:54;95874.88;;;-0.21;100.00
21588;BME280;10956;48.878;13.316;2023-02-14T08:47:19;95882.31;;;-0.26;100.00
21588;BME280;10956;48.878;13.316;2023-02-14T08:49:45;95882.31;;;-0.26;100.00
21588;BME280;10956;48.878;13.316;2023-02-14T08:52:10;95882.31;;;-0.26;100.00
21588;BME280;10956;48.878;13.316;2023-02-14T08:54:36;95883.63;;;-0.22;100.00
21588;BME280;10956;48.878;13.316;2023-02-14T08:57:01;95873.75;;;-0.19;100.00
21588;BME280;10956;48.878;13.316;2023-02-14T08:59:27;95875.88;;;-0.14;100.00
21588;BME280;10956;48.878;13.316;2023-02-14T09:01:53;95875.56;;;-0.11;100.00
21588;BME280;10956;48.878;13.316;2023-02-14T09:04:18;95871.66;;;-0.07;100.00
21588;BME280;10956;48.878;13.316;2023-02-14T09:06:44;95873.28;;;-0.06;100.00
21588;BME280;10956;48.878;13.316;2023-02-14T09:09:09;95878.97;;;-0.03;100.00
21588;BME280;10956;48.878;13.316;2023-02-14T09:11:35;95879.94;;;-0.04;100.00
21588;BME280;10956;48.878;13.316;2023-02-14T09:14:00;95877.84;;;0.00;100.00
21588;BME280;10956;48.878;13.316;2023-02-14T09:16:25;95887.06;;;0.03;100.00
21588;BME280;10956;48.878;13.316;2023-02-14T09:18:52;95879.13;;;0.04;100.00
21588;BME280;10956;48.878;13.316;2023-02-14T09:21:26;95878.97;;;0.06;100.00
21588;BME280;10956;48.878;13.316;2023-02-14T09:23:52;95880.44;;;0.08;100.00
21588;BME280;10956;48.878;13.316;2023-02-14T09:26:18;95888.56;;;0.13;100.00
21588;BME280;10956;48.878;13.316;2023-02-14T09:28:44;95880.13;;;0.19;100.00
21588;BME280;10956;48.878;13.316;2023-02-14T09:31:17;95878.53;;;0.26;100.00
21588;BME280;10956;48.878;13.316;2023-02-14T09:33:43;95880.16;;;0.27;100.00
21588;BME280;10956;48.878;13.316;2023-02-14T09:36:26;95879.00;;;0.30;100.00
21588;BME280;10956;48.878;13.316;2023-02-14T09:39:10;95877.56;;;0.36;100.00
21588;BME280;10956;48.878;13.316;2023-02-14T09:44:35;95879.66;;;0.48;100.00
21588;BME280;10956;48.878;13.316;2023-02-14T09:47:13;95877.56;;;0.52;100.00
21588;BME280;10956;48.878;13.316;2023-02-14T09:49:42;95875.78;;;0.52;100.00
21588;BME280;10956;48.878;13.316;2023-02-14T09:52:11;95872.69;;;0.49;100.00
21588;BME280;10956;48.878;13.316;2023-02-14T09:54:39;95875.94;;;0.51;100.00
21588;BME280;10956;48.878;13.316;2023-02-14T09:59:52;95863.13;;;0.57;100.00
21588;BME280;10956;48.878;13.316;2023-02-14T10:02:25;95872.03;;;0.63;100.00
21588;BME280;10956;48.878;13.316;2023-02-14T10:05:20;95865.88;;;0.64;100.00
21588;BME280;10956;48.878;13.316;2023-02-14T10:08:09;95867.50;;;0.65;100.00
21588;BME280;10956;48.878;13.316;2023-02-14T10:10:41;95870.75;;;0.67;100.00
21588;BME280;10956;48.878;13.316;2023-02-14T10:16:04;95865.22;;;0.78;100.00
21588;BME280;10956;48.878;13.316;2023-02-14T10:21:05;95860.66;;;0.80;100.00
21588;BME280;10956;48.878;13.316;2023-02-14T10:23:45;95863.59;;;0.85;100.00
21588;BME280;10956;48.878;13.316;2023-02-14T10:26:17;95864.06;;;0.89;100.00
21588;BME280;10956;48.878;13.316;2023-02-14T10:28:47;95868.59;;;0.95;100.00
21588;BME280;10956;48.878;13.316;2023-02-14T10:31:26;95872.31;;;1.01;100.00
21588;BME280;10956;48.878;13.316;2023-02-14T10:34:07;95861.59;;;1.04;100.00
21588;BME280;10956;48.878;13.316;2023-02-14T10:42:02;95854.94;;;1.09;100.00
21588;BME280;10956;48.878;13.316;2023-02-14T10:44:45;95856.56;;;1.10;100.00
21588;BME280;10956;48.878;13.316;2023-02-14T10:52:57;95851.03;;;1.13;100.00
21588;BME280;10956;48.878;13.316;2023-02-14T10:55:56;95851.56;;;1.01;100.00
21588;BME280;10956;48.878;13.316;2023-02-14T10:58:26;95844.41;;;1.03;100.00
21588;BME280;10956;48.878;13.316;2023-02-14T11:01:14;95849.94;;;1.00;100.00
21588;BME280;10956;48.878;13.316;2023-02-14T11:03:51;95848.31;;;0.99;100.00
21588;BME280;10956;48.878;13.316;2023-02-14T11:06:17;95843.44;;;1.04;100.00
21588;BME280;10956;48.878;13.316;2023-02-14T11:08:42;95839.84;;;1.05;100.00
21588;BME280;10956;48.878;13.316;2023-02-14T11:11:37;95841.44;;;1.14;100.00
21588;BME280;10956;48.878;13.316;2023-02-14T11:16:49;95839.09;;;1.35;100.00
21588;BME280;10956;48.878;13.316;2023-02-14T11:19:26;95837.47;;;1.42;100.00
21588;BME280;10956;48.878;13.316;2023-02-14T11:21:57;95826.91;;;1.44;100.00
21588;BME280;10956;48.878;13.316;2023-02-14T11:26:54;95826.84;;;1.52;100.00
21588;BME280;10956;48.878;13.316;2023-02-14T11:29:43;95823.59;;;1.58;100.00
21588;BME280;10956;48.878;13.316;2023-02-14T11:32:27;95823.25;;;1.61;100.00
21588;BME280;10956;48.878;13.316;2023-02-14T11:35:03;95817.22;;;1.60;100.00
21588;BME280;10956;48.878;13.316;2023-02-14T11:37:31;95810.88;;;1.63;100.00
21588;BME280;10956;48.878;13.316;2023-02-14T11:39:59;95809.72;;;1.66;100.00
21588;BME280;10956;48.878;13.316;2023-02-14T11:42:44;95813.31;;;1.65;100.00
21588;BME280;10956;48.878;13.316;2023-02-14T11:45:32;95805.00;;;1.69;100.00
21588;BME280;10956;48.878;13.316;2023-02-14T11:48:24;95810.31;;;1.76;100.00
21588;BME280;10956;48.878;13.316;2023-02-14T11:51:06;95804.09;;;1.85;100.00
21588;BME280;10956;48.878;13.316;2023-02-14T11:53:48;95800.97;;;1.89;100.00
21588;BME280;10956;48.878;13.316;2023-02-14T11:56:18;95804.03;;;1.93;100.00
21588;BME280;10956;48.878;13.316;2023-02-14T11:58:55;95795.91;;;1.96;100.00
21588;BME280;10956;48.878;13.316;2023-02-14T12:01:33;95804.16;;;2.00;100.00
21588;BME280;10956;48.878;13.316;2023-02-14T12:04:03;95795.22;;;2.02;100.00
21588;BME280;10956;48.878;13.316;2023-02-14T12:06:32;95791.28;;;2.06;100.00
21588;BME280;10956;48.878;13.316;2023-02-14T12:11:36;95790.88;;;2.17;100.00
21588;BME280;10956;48.878;13.316;2023-02-14T12:14:02;95785.94;;;2.22;100.00
21588;BME280;10956;48.878;13.316;2023-02-14T12:16:37;95782.81;;;2.27;100.00
21588;BME280;10956;48.878;13.316;2023-02-14T12:19:12;95778.06;;;2.31;100.00
21588;BME280;10956;48.878;13.316;2023-02-14T12:21:48;95776.91;;;2.33;100.00
21588;BME280;10956;48.878;13.316;2023-02-14T12:24:24;95775.13;;;2.34;100.00
21588;BME280;10956;48.878;13.316;2023-02-14T12:29:43;95770.19;;;2.39;100.00
21588;BME280;10956;48.878;13.316;2023-02-14T12:32:21;95758.47;;;2.43;100.00
21588;BME280;10956;48.878;13.316;2023-02-14T12:34:48;95754.69;;;2.45;100.00
21588;BME280;10956;48.878;13.316;2023-02-14T12:37:22;95753.19;;;2.51;100.00
21588;BME280;10956;48.878;13.316;2023-02-14T12:58:04;95727.69;;;2.76;100.00
21588;BME280;10956;48.878;13.316;2023-02-14T13:06:28;95724.81;;;2.85;100.00
21588;BME280;10956;48.878;13.316;2023-02-14T13:09:31;95714.84;;;2.89;100.00
21588;BME280;10956;48.878;13.316;2023-02-14T13:14:51;95712.97;;;2.98;100.00
21588;BME280;10956;48.878;13.316;2023-02-14T13:17:45;95710.63;;;3.03;100.00
21588;BME280;10956;48.878;13.316;2023-02-14T13:23:39;95702.34;;;3.14;100.00
21588;BME280;10956;48.878;13.316;2023-02-14T13:26:13;95704.59;;;3.17;100.00
21588;BME280;10956;48.878;13.316;2023-02-14T13:28:54;95711.59;;;3.16;100.00
21588;BME280;10956;48.878;13.316;2023-02-14T13:31:20;95703.34;;;3.13;100.00
21588;BME280;10956;48.878;13.316;2023-02-14T13:33:53;95699.75;;;3.14;100.00
21588;BME280;10956;48.878;13.316;2023-02-14T13:36:21;95693.16;;;3.18;100.00
21588;BME280;10956;48.878;13.316;2023-02-14T13:38:53;95691.19;;;3.20;100.00
21588;BME280;10956;48.878;13.316;2023-02-14T13:41:20;95691.19;;;3.20;100.00
21588;BME280;10956;48.878;13.316;2023-02-14T13:43:47;95687.97;;;3.18;100.00
21588;BME280;10956;48.878;13.316;2023-02-14T13:46:15;95687.97;;;3.18;100.00
21588;BME280;10956;48.878;13.316;2023-02-14T13:49:11;95693.63;;;3.21;100.00
21588;BME280;10956;48.878;13.316;2023-02-14T13:51:44;95687.22;;;3.24;100.00
21588;BME280;10956;48.878;13.316;2023-02-14T13:54:33;95686.88;;;3.27;100.00
21588;BME280;10956;48.878;13.316;2023-02-14T13:57:02;95688.47;;;3.28;100.00
21588;BME280;10956;48.878;13.316;2023-02-14T13:59:33;95686.50;;;3.30;100.00
21588;BME280;10956;48.878;13.316;2023-02-14T14:02:29;95692.44;;;3.24;100.00
21588;BME280;10956;48.878;13.316;2023-02-14T14:04:56;95685.63;;;3.23;100.00
21588;BME280;10956;48.878;13.316;2023-02-14T14:07:26;95680.41;;;3.23;100.00
21588;BME280;10956;48.878;13.316;2023-02-14T14:09:57;95680.41;;;3.23;100.00
21588;BME280;10956;48.878;13.316;2023-02-14T14:17:28;95689.00;;;3.38;100.00
21588;BME280;10956;48.878;13.316;2023-02-14T14:19:54;95685.38;;;3.39;100.00
21588;BME280;10956;48.878;13.316;2023-02-14T14:22:22;95681.16;;;3.38;100.00
21588;BME280;10956;48.878;13.316;2023-02-14T14:27:21;95677.56;;;3.39;100.00
21588;BME280;10956;48.878;13.316;2023-02-14T14:29:52;95678.19;;;3.41;100.00
21588;BME280;10956;48.878;13.316;2023-02-14T14:35:17;95674.84;;;3.47;100.00
21588;BME280;10956;48.878;13.316;2023-02-14T14:37:57;95677.25;;;3.49;100.00
21588;BME280;10956;48.878;13.316;2023-02-14T14:40:26;95682.28;;;3.50;100.00
21588;BME280;10956;48.878;13.316;2023-02-14T14:42:56;95671.88;;;3.50;100.00
21588;BME280;10956;48.878;13.316;2023-02-14T14:45:25;95671.50;;;3.53;100.00
21588;BME280;10956;48.878;13.316;2023-02-14T14:47:53;95671.50;;;3.53;100.00
21588;BME280;10956;48.878;13.316;2023-02-14T14:50:26;95666.66;;;3.50;100.00
21588;BME280;10956;48.878;13.316;2023-02-14T14:52:54;95672.00;;;3.42;100.00